createdAt,value
2023-04-07T00:03:31.714Z,24.30
2023-04-07T00:08:35.709Z,23.40
2023-04-07T00:13:40.440Z,18.83
2023-04-07T00:18:42.556Z,21.50
2023-04-07T00:23:46.167Z,20.92
2023-04-07T00:28:48.380Z,21.10
2023-04-07T00:33:50.556Z,22.50
2023-04-07T00:38:54.067Z,17.67
2023-04-07T00:43:56.258Z,17.70
2023-04-07T00:48:58.384Z,16.80
2023-04-07T00:54:02.360Z,15.63
2023-04-07T00:59:05.231Z,17.42
2023-04-07T01:04:12.810Z,15.25
2023-04-07T01:09:21.816Z,15.02
2023-04-07T01:14:24.844Z,13.60
2023-04-07T01:19:34.581Z,15.20
2023-04-07T01:25:15.441Z,16.50
2023-04-07T01:30:20.632Z,15.40
2023-04-07T01:35:24.020Z,17.05
2023-04-07T01:40:27.760Z,18.45
2023-04-07T01:45:36.069Z,15.57
2023-04-07T01:50:39.184Z,16.48
2023-04-07T01:55:42.948Z,18.42
2023-04-07T02:00:46.526Z,16.65
2023-04-07T02:05:52.549Z,20.15
2023-04-07T02:10:56.860Z,20.60
2023-04-07T02:16:01.918Z,16.73
2023-04-07T02:21:05.842Z,17.90
2023-04-07T02:26:07.940Z,17.70
2023-04-07T02:31:13.908Z,19.08
2023-04-07T02:36:16.072Z,19.70
2023-04-07T02:41:18.244Z,20.65
2023-04-07T02:46:21.797Z,28.83
2023-04-07T02:51:25.665Z,23.27
2023-04-07T02:56:27.822Z,27.92
2023-04-07T03:01:31.668Z,23.95
2023-04-07T03:06:33.920Z,23.42
2023-04-07T03:11:36.002Z,25.10
2023-04-07T03:16:39.534Z,26.23
2023-04-07T03:21:41.761Z,24.45
2023-04-07T03:26:43.838Z,21.92
2023-04-07T03:31:47.431Z,23.52
2023-04-07T03:36:49.588Z,23.50
2023-04-07T03:41:51.753Z,24.50
2023-04-07T03:46:55.393Z,21.33
2023-04-07T03:51:57.525Z,22.30
2023-04-07T03:56:59.635Z,24.65
2023-04-07T04:02:03.445Z,22.10
2023-04-07T04:07:05.603Z,22.30
2023-04-07T04:12:10.496Z,23.42
2023-04-07T04:17:14.040Z,21.23
2023-04-07T04:22:18.048Z,20.73
2023-04-07T04:27:20.131Z,23.77
2023-04-07T04:32:23.693Z,24.17
2023-04-07T04:37:28.383Z,21.58
2023-04-07T04:42:30.496Z,22.00
2023-04-07T04:47:34.032Z,23.15
2023-04-07T04:52:36.294Z,20.80
2023-04-07T04:57:38.425Z,24.23
2023-04-07T05:02:42.284Z,22.98
2023-04-07T05:07:44.695Z,21.50
2023-04-07T05:12:49.534Z,20.45
2023-04-07T05:17:55.556Z,21.00
2023-04-07T05:22:57.763Z,22.10
2023-04-07T05:28:00.150Z,24.65
2023-04-07T05:33:03.921Z,19.65
2023-04-07T05:38:06.201Z,21.02
2023-04-07T05:43:08.447Z,18.58
2023-04-07T05:48:12.057Z,23.10
2023-04-07T05:53:14.196Z,19.55
2023-04-07T05:58:16.380Z,20.08
2023-04-07T06:03:22.894Z,17.90
2023-04-07T06:08:25.124Z,17.10
2023-04-07T06:13:27.236Z,20.25
2023-04-07T06:18:30.838Z,16.88
2023-04-07T06:23:32.984Z,18.00
2023-04-07T06:28:35.217Z,16.58
2023-04-07T06:33:38.724Z,18.35
2023-04-07T06:38:40.884Z,15.32
2023-04-07T06:43:43.286Z,16.20
2023-04-07T06:48:46.972Z,16.30
2023-04-07T06:53:49.379Z,15.02
2023-04-07T06:58:51.732Z,17.45
2023-04-07T07:03:55.489Z,18.05
2023-04-07T07:08:57.962Z,16.80
2023-04-07T07:14:00.045Z,20.40
2023-04-07T07:19:03.654Z,15.38
2023-04-07T07:24:06.092Z,20.35
2023-04-07T07:29:08.197Z,17.17
2023-04-07T07:34:12.945Z,13.57
2023-04-07T07:39:15.077Z,14.77
2023-04-07T07:44:17.209Z,15.10
2023-04-07T07:49:20.715Z,14.27
2023-04-07T07:54:22.783Z,13.90
2023-04-07T07:59:24.880Z,15.05
2023-04-07T08:04:28.545Z,17.33
2023-04-07T08:09:30.696Z,14.38
2023-04-07T08:14:32.924Z,16.25
2023-04-07T08:19:36.566Z,15.07
2023-04-07T08:24:38.715Z,16.33
2023-04-07T08:29:40.817Z,13.65
2023-04-07T08:34:44.436Z,11.35
2023-04-07T08:39:46.587Z,12.02
2023-04-07T08:44:53.991Z,11.55
2023-04-07T08:50:02.480Z,12.95
2023-04-07T08:55:05.604Z,11.18
2023-04-07T09:00:11.797Z,13.23
2023-04-07T09:05:15.416Z,9.15
2023-04-07T09:10:17.734Z,10.57
2023-04-07T09:15:20.563Z,11.32
2023-04-07T09:20:24.152Z,10.07
2023-04-07T09:25:28.871Z,12.40
2023-04-07T09:30:32.802Z,15.15
2023-04-07T09:35:51.977Z,10.25
2023-04-07T09:41:06.435Z,8.77
2023-04-07T09:46:13.741Z,11.48
2023-04-07T09:51:18.289Z,9.20
2023-04-07T09:56:22.608Z,10.70
2023-04-07T10:01:24.831Z,10.65
2023-04-07T10:06:28.504Z,9.60
2023-04-07T10:11:30.772Z,10.98
2023-04-07T10:16:33.458Z,11.48
2023-04-07T10:21:42.326Z,16.92
2023-04-07T10:26:44.713Z,12.70
2023-04-07T10:31:47.444Z,14.90
2023-04-07T10:37:13.492Z,13.75
2023-04-07T10:42:44.718Z,21.70
2023-04-07T10:48:10.878Z,12.63
2023-04-07T10:53:15.395Z,14.20
2023-04-07T10:58:22.821Z,11.75
2023-04-07T11:03:25.989Z,16.38
2023-04-07T11:08:34.764Z,17.42
2023-04-07T11:13:41.085Z,13.30
2023-04-07T11:18:44.714Z,15.03
2023-04-07T11:23:48.767Z,12.18
2023-04-07T11:28:52.980Z,11.93
2023-04-07T11:33:56.709Z,15.50
2023-04-07T11:39:03.353Z,11.50
2023-04-07T11:44:07.464Z,15.10
2023-04-07T11:49:11.896Z,11.75
2023-04-07T11:54:15.598Z,12.38
2023-04-07T11:59:22.589Z,12.55
2023-04-07T12:04:25.040Z,13.05
2023-04-07T12:09:30.729Z,13.23
2023-04-07T12:14:35.937Z,11.98
2023-04-07T12:19:41.374Z,11.38
2023-04-07T12:24:45.052Z,11.82
2023-04-07T12:29:48.909Z,13.95
2023-04-07T12:34:51.042Z,12.73
2023-04-07T12:39:54.675Z,13.95
2023-04-07T12:44:56.843Z,14.35
2023-04-07T12:49:59.082Z,11.75
2023-04-07T12:55:04.311Z,11.52
2023-04-07T13:00:09.129Z,14.88
2023-04-07T13:05:11.225Z,12.88
2023-04-07T13:10:14.789Z,10.07
2023-04-07T13:15:19.078Z,9.00
2023-04-07T13:20:21.872Z,9.95
2023-04-07T13:25:25.528Z,9.18
2023-04-07T13:30:27.709Z,9.93
2023-04-07T13:35:30.009Z,10.00
2023-04-07T13:40:33.626Z,11.93
2023-04-07T13:45:36.070Z,10.63
2023-04-07T13:50:39.759Z,11.85
2023-04-07T13:55:43.376Z,8.02
2023-04-07T14:00:48.354Z,8.52
2023-04-07T14:05:50.554Z,6.90
2023-04-07T14:10:54.131Z,12.43
2023-04-07T14:15:56.284Z,10.38
2023-04-07T14:20:58.419Z,10.90
2023-04-07T14:26:01.948Z,8.35
2023-04-07T14:31:04.286Z,10.65
2023-04-07T14:36:06.737Z,12.15
2023-04-07T14:41:10.684Z,10.52
2023-04-07T14:46:12.838Z,8.68
2023-04-07T14:51:15.037Z,11.23
2023-04-07T14:56:18.632Z,9.15
2023-04-07T15:01:28.384Z,8.50
2023-04-07T15:06:34.024Z,9.77
2023-04-07T15:11:43.465Z,13.30
2023-04-07T15:16:51.246Z,7.93
2023-04-07T15:21:53.481Z,7.35
2023-04-07T15:26:58.417Z,8.90
2023-04-07T15:32:03.677Z,7.28
2023-04-07T15:37:06.073Z,7.35
2023-04-07T15:42:11.868Z,7.65
2023-04-07T15:47:14.333Z,8.35
2023-04-07T15:52:17.528Z,11.02
2023-04-07T15:57:21.104Z,9.68
2023-04-07T16:02:24.339Z,10.48
2023-04-07T16:07:27.123Z,9.27
2023-04-07T16:12:31.611Z,7.00
2023-04-07T16:17:34.085Z,10.95
2023-04-07T16:22:36.281Z,7.72
2023-04-07T16:27:40.059Z,7.95
2023-04-07T16:32:43.283Z,6.53
2023-04-07T16:37:45.738Z,5.88
2023-04-07T16:42:51.912Z,6.82
2023-04-07T16:47:55.511Z,5.55
2023-04-07T16:53:01.644Z,5.60
2023-04-07T16:58:05.657Z,7.55
2023-04-07T17:03:07.948Z,6.25
2023-04-07T17:08:10.268Z,7.72
2023-04-07T17:13:13.976Z,8.10
2023-04-07T17:18:16.265Z,5.22
2023-04-07T17:23:18.811Z,7.22
2023-04-07T17:28:22.483Z,4.43
2023-04-07T17:33:24.849Z,4.13
2023-04-07T17:38:30.488Z,5.88
2023-04-07T17:43:33.982Z,3.20
2023-04-07T17:48:36.110Z,3.25
2023-04-07T17:53:38.208Z,3.13
2023-04-07T17:58:41.723Z,6.55
2023-04-07T18:03:43.958Z,4.28
2023-04-07T18:08:46.869Z,6.82
2023-04-07T18:13:50.708Z,5.63
2023-04-07T18:18:53.037Z,5.28
2023-04-07T18:23:55.175Z,7.32
2023-04-07T18:29:01.269Z,4.75
2023-04-07T18:34:03.512Z,4.32
2023-04-07T18:39:05.622Z,7.15
2023-04-07T18:44:09.138Z,5.65
2023-04-07T18:49:11.278Z,4.95
2023-04-07T18:54:13.652Z,6.97
2023-04-07T18:59:17.268Z,4.63
2023-04-07T19:04:19.561Z,3.10
2023-04-07T19:09:21.787Z,6.43
2023-04-07T19:14:25.336Z,3.63
2023-04-07T19:19:27.964Z,3.28
2023-04-07T19:24:30.090Z,3.58
2023-04-07T19:29:33.779Z,4.03
2023-04-07T19:34:36.180Z,3.13
2023-04-07T19:39:38.332Z,3.40
2023-04-07T19:44:42.051Z,4.40
2023-04-07T19:49:44.170Z,3.60
2023-04-07T19:54:52.385Z,3.78
2023-04-07T19:59:58.368Z,4.95
2023-04-07T20:05:00.504Z,4.07
2023-04-07T20:10:02.965Z,3.90
2023-04-07T20:15:10.896Z,8.68
2023-04-07T20:20:56.128Z,3.72
2023-04-07T20:26:00.576Z,6.72
2023-04-07T20:31:04.898Z,7.70
2023-04-07T20:36:10.119Z,6.22
2023-04-07T20:41:12.900Z,8.05
2023-04-07T20:46:16.426Z,7.55
2023-04-07T20:51:18.590Z,9.73
2023-04-07T20:56:20.725Z,9.30
2023-04-07T21:01:27.416Z,9.80
2023-04-07T21:06:34.422Z,6.65
2023-04-07T21:11:36.825Z,6.18
2023-04-07T21:16:40.391Z,9.32
2023-04-07T21:21:42.486Z,8.23
2023-04-07T21:26:44.648Z,8.80
2023-04-07T21:31:48.351Z,7.65
2023-04-07T21:36:58.949Z,10.88
2023-04-07T21:42:02.308Z,8.55
2023-04-07T21:47:05.821Z,9.95
2023-04-07T21:52:08.092Z,7.10
2023-04-07T21:57:10.317Z,10.88
2023-04-07T22:02:14.001Z,9.32
2023-04-07T22:07:16.122Z,9.98
2023-04-07T22:12:18.830Z,11.40
2023-04-07T22:17:22.388Z,12.73
2023-04-07T22:22:24.515Z,10.95
2023-04-07T22:27:26.604Z,11.88
2023-04-07T22:32:30.193Z,11.00
2023-04-07T22:37:32.305Z,17.65
2023-04-07T22:42:34.398Z,15.95
2023-04-07T22:47:39.134Z,17.45
2023-04-07T22:52:42.962Z,17.05
2023-04-07T22:57:45.155Z,14.95
2023-04-07T23:02:48.902Z,19.40
2023-04-07T23:07:51.230Z,16.10
2023-04-07T23:12:53.312Z,18.40
2023-04-07T23:17:56.887Z,19.70
2023-04-07T23:22:58.982Z,18.67
2023-04-07T23:28:01.086Z,23.23
2023-04-07T23:33:04.725Z,21.00
2023-04-07T23:38:08.653Z,19.40
2023-04-07T23:43:14.271Z,17.88
2023-04-07T23:48:22.817Z,21.45
2023-04-07T23:53:24.955Z,20.02
2023-04-07T23:58:27.079Z,17.80
